Time;durP1;ratioP1;P1;durP2;ratioP2;P2;SDS_P1;SDS_P2;PMS_P1;PMS_P2;Temp;Humidity;BMP_temperature;BMP_pressure;BME280_temperature;BME280_humidity;BME280_pressure;Samples;Min_cycle;Max_cycle;Signal;HPM_P1;HPM_P2
2023/08/26 00:00:28;;;;;;;25.48;18.80;;;;;;;16.15;100.00;100898.91;5072643;28;20472;-76
2023/08/26 00:02:54;;;;;;;26.00;18.85;;;;;;;16.31;100.00;100929.69;5072449;28;20028;-76
2023/08/26 00:05:19;;;;;;;21.80;18.88;;;;;;;16.13;100.00;100906.03;5072603;28;20017;-78
2023/08/26 00:07:45;;;;;;;23.63;18.52;;;;;;;16.26;100.00;100937.91;5072430;28;20064;-75
2023/08/26 00:10:10;;;;;;;22.13;17.55;;;;;;;16.19;100.00;100936.78;5072602;28;20029;-75
2023/08/26 00:12:35;;;;;;;24.05;17.67;;;;;;;15.98;100.00;100899.53;5071771;28;20047;-76
2023/08/26 00:15:01;;;;;;;23.08;17.08;;;;;;;16.09;100.00;100933.28;5072455;28;20024;-76
2023/08/26 00:17:26;;;;;;;23.23;17.42;;;;;;;16.06;100.00;100931.78;5072475;28;20029;-75
2023/08/26 00:19:51;;;;;;;21.83;17.25;;;;;;;15.99;100.00;100925.44;5072466;28;20161;-75
2023/08/26 00:22:17;;;;;;;22.13;15.50;;;;;;;16.03;100.00;100929.44;5071002;28;20029;-76
2023/08/26 00:24:43;;;;;;;20.83;14.07;;;;;;;15.89;100.00;100931.53;5072659;28;20115;-75
2023/08/26 00:27:09;;;;;;;17.75;13.27;;;;;;;15.88;100.00;100929.91;5072409;28;20024;-75
2023/08/26 00:29:34;;;;;;;15.80;11.55;;;;;;;15.85;100.00;100937.97;5072450;28;20036;-76
2023/08/26 00:32:00;;;;;;;15.27;10.70;;;;;;;15.81;100.00;100939.16;5072177;28;20032;-75
2023/08/26 00:34:25;;;;;;;14.88;10.80;;;;;;;15.76;100.00;100942.16;5072225;28;20093;-75
2023/08/26 00:36:51;;;;;;;16.10;11.25;;;;;;;15.72;100.00;100940.75;5070547;28;20033;-76
2023/08/26 00:39:16;;;;;;;18.70;12.15;;;;;;;15.61;100.00;100922.59;5072315;28;20024;-75
2023/08/26 00:41:41;;;;;;;17.17;12.00;;;;;;;15.69;100.00;100936.63;5072089;28;20040;-75
2023/08/26 00:44:07;;;;;;;20.70;12.38;;;;;;;15.66;100.00;100934.28;5072182;28;20020;-75
2023/08/26 00:46:32;;;;;;;18.52;11.32;;;;;;;15.54;100.00;100932.66;5072236;28;20037;-76
2023/08/26 00:48:59;;;;;;;20.33;12.55;;;;;;;15.28;100.00;100902.75;5071962;28;20029;-75
2023/08/26 00:51:24;;;;;;;15.65;11.18;;;;;;;15.41;100.00;100926.78;5071996;28;20032;-75
2023/08/26 00:53:50;;;;;;;17.45;10.88;;;;;;;15.46;100.00;100946.31;5054010;28;20032;-75
2023/08/26 00:56:15;;;;;;;16.05;9.50;;;;;;;15.35;100.00;100927.31;5072111;28;20043;-76
2023/08/26 00:58:41;;;;;;;15.77;9.60;;;;;;;15.15;100.00;100905.53;5072166;28;20028;-77
2023/08/26 01:01:07;;;;;;;18.13;9.20;;;;;;;15.36;100.00;100947.19;5072042;28;20036;-75
2023/08/26 01:03:33;;;;;;;13.52;8.68;;;;;;;15.21;100.00;100923.22;5072010;28;20583;-76
2023/08/26 01:05:58;;;;;;;13.32;8.07;;;;;;;15.23;100.00;100949.09;5072011;28;20362;-76
2023/08/26 01:08:23;;;;;;;12.82;8.18;;;;;;;15.15;100.00;100952.34;5071526;28;20025;-76
2023/08/26 01:11:03;;;;;;;10.80;7.85;;;;;;;15.15;100.00;100947.13;5071932;28;20025;-76
2023/08/26 01:13:36;;;;;;;11.70;8.00;;;;;;;14.98;100.00;100927.66;5054208;28;20024;-76
2023/08/26 01:16:02;;;;;;;11.20;6.88;;;;;;;14.91;100.00;100929.91;5071842;28;20021;-76
2023/08/26 01:18:28;;;;;;;14.10;7.40;;;;;;;14.95;100.00;100945.31;5071660;28;20480;-76
2023/08/26 01:20:55;;;;;;;15.48;7.78;;;;;;;14.77;100.00;100938.00;5071721;28;20065;-76
2023/08/26 01:23:36;;;;;;;14.23;7.30;;;;;;;14.70;100.00;100954.19;5071953;28;20039;-75
2023/08/26 01:26:01;;;;;;;10.35;6.78;;;;;;;14.62;100.00;100954.78;5074474;28;20045;-76
2023/08/26 01:28:26;;;;;;;11.23;7.20;;;;;;;14.52;100.00;100951.25;5073718;28;20131;-76
2023/08/26 01:30:54;;;;;;;12.90;7.22;;;;;;;14.43;100.00;100959.72;5075321;28;20027;-75
2023/08/26 01:33:24;;;;;;;10.82;6.72;;;;;;;14.33;100.00;100963.03;5075201;28;20029;-77
2023/08/26 01:35:55;;;;;;;10.90;6.40;;;;;;;14.23;100.00;100963.84;5075213;28;20511;-76
2023/08/26 01:38:22;;;;;;;10.20;6.32;;;;;;;14.14;100.00;100954.97;5075034;28;20037;-75
2023/08/26 01:40:53;;;;;;;13.23;6.00;;;;;;;14.09;100.00;100953.69;5075112;28;20052;-75
2023/08/26 01:43:20;;;;;;;10.57;6.57;;;;;;;13.89;100.00;100942.22;5075079;28;20545;-78
2023/08/26 01:45:45;;;;;;;10.77;5.82;;;;;;;13.84;100.00;100952.09;5074969;28;20365;-75
2023/08/26 01:48:11;;;;;;;10.63;6.00;;;;;;;13.77;100.00;100949.16;5075004;28;20082;-77
2023/08/26 01:50:36;;;;;;;8.90;5.55;;;;;;;13.70;100.00;100956.53;5074661;28;20023;-76
2023/08/26 01:53:01;;;;;;;11.07;5.18;;;;;;;13.59;100.00;100948.72;5075061;28;20090;-76
2023/08/26 01:55:27;;;;;;;9.52;5.22;;;;;;;13.47;100.00;100937.50;5073773;28;20017;-77
2023/08/26 01:57:55;;;;;;;9.40;5.03;;;;;;;13.48;100.00;100953.88;5074834;28;20067;-77
2023/08/26 02:00:20;;;;;;;9.25;4.97;;;;;;;13.49;100.00;100953.78;5074968;28;20028;-76
2023/08/26 02:02:46;;;;;;;11.15;5.00;;;;;;;13.44;100.00;100960.22;5074961;28;20024;-77
2023/08/26 02:05:11;;;;;;;12.40;5.30;;;;;;;13.36;100.00;100957.34;5074495;28;20487;-76
2023/08/26 02:07:37;;;;;;;9.35;5.10;;;;;;;13.31;100.00;100951.69;5074525;28;20028;-76
2023/08/26 02:10:02;;;;;;;9.20;5.10;;;;;;;13.24;100.00;100960.84;5074590;28;20119;-76
2023/08/26 02:12:28;;;;;;;8.30;4.60;;;;;;;12.99;100.00;100920.25;5074557;28;20029;-76
2023/08/26 02:14:53;;;;;;;11.90;4.78;;;;;;;13.15;100.00;100962.28;5074649;28;20385;-76
2023/08/26 02:17:19;;;;;;;8.93;4.70;;;;;;;13.03;100.00;100939.84;5074548;28;20029;-76
2023/08/26 02:19:44;;;;;;;11.05;5.25;;;;;;;12.91;100.00;100928.56;5073976;28;20487;-76
2023/08/26 02:22:09;;;;;;;11.80;4.90;;;;;;;12.96;100.00;100949.81;5074618;28;20051;-76
2023/08/26 02:24:35;;;;;;;7.60;4.40;;;;;;;12.98;100.00;100952.28;5074555;28;20392;-76
2023/08/26 02:27:00;;;;;;;12.77;4.72;;;;;;;12.92;100.00;100948.38;5074257;28;20082;-76
2023/08/26 02:29:26;;;;;;;10.20;4.70;;;;;;;12.78;100.00;100933.81;5074292;28;20029;-77
2023/08/26 02:31:51;;;;;;;10.43;5.13;;;;;;;12.79;100.00;100939.81;5074345;28;20055;-78
2023/08/26 02:34:17;;;;;;;8.82;4.72;;;;;;;12.84;100.00;100958.44;5073355;28;20081;-77
2023/08/26 02:36:42;;;;;;;10.45;4.20;;;;;;;12.80;100.00;100955.25;5055675;28;20040;-77
2023/08/26 02:39:07;;;;;;;10.10;4.57;;;;;;;12.77;100.00;100941.66;5073888;28;20086;-76
2023/08/26 02:41:33;;;;;;;9.25;5.03;;;;;;;12.72;100.00;100949.78;5074002;28;20127;-77
2023/08/26 02:43:58;;;;;;;9.63;4.80;;;;;;;12.70;100.00;100949.06;5074034;28;20016;-76
2023/08/26 02:46:23;;;;;;;8.25;4.57;;;;;;;12.69;100.00;100944.00;5073762;28;20023;-76
2023/08/26 02:48:50;;;;;;;9.07;4.78;;;;;;;12.64;100.00;100939.13;5073747;28;20423;-77
2023/08/26 02:51:15;;;;;;;9.57;4.50;;;;;;;12.63;100.00;100951.25;5073506;28;20029;-76
2023/08/26 02:53:41;;;;;;;9.75;4.85;;;;;;;12.58;100.00;100948.13;5073767;28;20586;-77
2023/08/26 02:56:06;;;;;;;9.70;5.00;;;;;;;12.50;100.00;100934.91;5073650;28;20035;-77
2023/08/26 02:58:31;;;;;;;8.73;4.93;;;;;;;12.53;100.00;100932.09;5073526;28;20074;-77
2023/08/26 03:01:01;;;;;;;10.15;4.80;;;;;;;12.52;100.00;100940.81;5073597;28;20025;-77
2023/08/26 03:03:26;;;;;;;13.73;5.10;;;;;;;12.47;100.00;100947.22;5073598;28;20032;-77
2023/08/26 03:05:56;;;;;;;9.55;4.85;;;;;;;12.24;100.00;100908.19;5073197;28;20033;-77
2023/08/26 03:08:21;;;;;;;11.23;4.35;;;;;;;12.42;100.00;100938.97;5073480;28;20129;-77
2023/08/26 03:10:58;;;;;;;9.98;4.38;;;;;;;12.41;100.00;100943.31;5073129;28;20416;-77
2023/08/26 03:13:23;;;;;;;9.27;3.85;;;;;;;12.23;100.00;100914.31;5073173;28;20024;-77
2023/08/26 03:15:48;;;;;;;9.93;4.55;;;;;;;12.32;100.00;100944.75;5073157;28;20051;-77
2023/08/26 03:18:14;;;;;;;10.27;4.50;;;;;;;12.27;100.00;100940.81;5073418;28;20059;-77
2023/08/26 03:20:39;;;;;;;10.73;4.90;;;;;;;12.28;100.00;100948.47;5073038;28;20029;-76
2023/08/26 03:23:04;;;;;;;13.68;4.55;;;;;;;12.25;100.00;100943.50;5073230;28;20024;-77
2023/08/26 03:25:30;;;;;;;9.90;4.20;;;;;;;12.23;100.00;100955.75;5073161;28;20369;-77
2023/08/26 03:27:55;;;;;;;9.30;3.78;;;;;;;12.14;100.00;100951.19;5073145;28;20495;-79
2023/08/26 03:30:21;;;;;;;12.63;4.28;;;;;;;12.16;100.00;100959.66;5073002;28;20127;-79
2023/08/26 03:32:46;;;;;;;8.40;3.88;;;;;;;12.15;100.00;100958.03;5073117;28;20035;-76
2023/08/26 03:35:11;;;;;;;10.77;4.53;;;;;;;12.12;100.00;100952.22;5072964;28;20021;-78
2023/08/26 03:37:37;;;;;;;10.73;4.40;;;;;;;12.09;100.00;100958.41;5072667;28;20029;-76
2023/08/26 03:40:07;;;;;;;9.32;4.65;;;;;;;11.98;100.00;100943.59;5072818;28;20056;-76
2023/08/26 03:42:32;;;;;;;8.43;4.25;;;;;;;11.93;100.00;100945.69;5072775;28;20407;-76
2023/08/26 03:44:57;;;;;;;7.78;4.10;;;;;;;11.93;100.00;100945.69;5072974;28;20107;-79
2023/08/26 03:47:23;;;;;;;9.95;4.50;;;;;;;11.90;100.00;100945.91;5071985;28;20063;-76
2023/08/26 03:49:48;;;;;;;8.40;4.53;;;;;;;12.01;100.00;100960.72;5072777;28;20032;-76
2023/08/26 03:52:13;;;;;;;11.25;4.55;;;;;;;11.93;100.00;100957.81;5072633;28;20028;-79
2023/08/26 03:54:39;;;;;;;9.32;4.60;;;;;;;11.89;100.00;100956.34;5072556;28;20020;-76
2023/08/26 03:57:04;;;;;;;11.07;4.72;;;;;;;11.94;100.00;100972.41;5072414;28;20032;-75
2023/08/26 03:59:29;;;;;;;8.85;4.50;;;;;;;11.89;100.00;100975.28;5072727;28;20032;-79
2023/08/26 04:01:55;;;;;;;8.60;3.75;;;;;;;11.73;100.00;100946.97;5072570;28;20028;-78
2023/08/26 04:04:20;;;;;;;8.88;4.75;;;;;;;11.87;100.00;100971.97;5072618;28;20031;-79
2023/08/26 04:06:45;;;;;;;10.52;4.53;;;;;;;11.75;100.00;100954.63;5072530;28;20025;-77
2023/08/26 04:09:11;;;;;;;9.65;4.57;;;;;;;11.85;100.00;100976.41;5072380;28;20039;-79
2023/08/26 04:11:36;;;;;;;8.10;4.53;;;;;;;11.77;100.00;100965.72;5072279;28;20035;-79
2023/08/26 04:14:01;;;;;;;10.52;4.72;;;;;;;11.66;100.00;100956.06;5071128;28;20206;-76
2023/08/26 04:16:28;;;;;;;10.27;4.50;;;;;;;11.73;100.00;100970.25;5072763;28;20028;-76
2023/08/26 04:18:54;;;;;;;9.85;4.22;;;;;;;11.44;100.00;100935.13;5072556;28;20107;-76
2023/08/26 04:21:19;;;;;;;14.02;4.95;;;;;;;11.64;100.00;100970.03;5072258;28;20454;-79
2023/08/26 04:23:45;;;;;;;9.98;4.50;;;;;;;11.63;100.00;100969.22;5072357;28;20063;-79
2023/08/26 04:26:10;;;;;;;9.95;4.70;;;;;;;11.68;100.00;100987.00;5071227;28;20477;-77
2023/08/26 04:28:36;;;;;;;12.70;4.95;;;;;;;11.58;100.00;100967.84;5072427;28;20036;-77
2023/08/26 04:31:01;;;;;;;10.20;4.93;;;;;;;11.63;100.00;100978.72;5072376;28;20020;-77
2023/08/26 04:33:27;;;;;;;10.35;4.80;;;;;;;11.67;100.00;100998.28;5072365;28;20035;-79
2023/08/26 04:35:52;;;;;;;9.43;4.72;;;;;;;11.64;100.00;100986.38;5072213;28;20494;-79
2023/08/26 04:38:17;;;;;;;10.57;4.38;;;;;;;11.64;100.00;100998.50;5072083;28;20029;-79
2023/08/26 04:40:43;;;;;;;8.55;4.35;;;;;;;11.60;100.00;100992.69;5071970;28;20370;-78
2023/08/26 04:43:10;;;;;;;8.85;4.50;;;;;;;11.57;100.00;100990.28;5054201;28;20043;-79
2023/08/26 04:45:37;;;;;;;8.90;4.55;;;;;;;11.45;100.00;100973.81;5072113;28;20111;-79
2023/08/26 04:48:04;;;;;;;11.27;4.80;;;;;;;11.60;100.00;100992.69;5072065;28;20120;-78
2023/08/26 04:50:29;;;;;;;8.80;4.57;;;;;;;11.59;100.00;100996.19;5072213;28;20028;-79
2023/08/26 04:52:55;;;;;;;8.48;4.60;;;;;;;11.62;100.00;101003.75;5071792;28;20017;-80
2023/08/26 04:55:20;;;;;;;9.45;4.45;;;;;;;11.50;100.00;100991.59;5072048;28;20372;-76
2023/08/26 04:57:45;;;;;;;12.45;5.05;;;;;;;11.75;100.00;101016.72;5073231;28;20024;-77
2023/08/26 05:00:11;;;;;;;11.60;4.43;;;;;;;11.75;100.00;101019.31;5075972;28;20035;-77
2023/08/26 05:02:39;;;;;;;9.38;4.40;;;;;;;11.71;100.00;101023.88;5075469;28;20036;-76
2023/08/26 05:05:05;;;;;;;10.27;4.55;;;;;;;11.73;100.00;101022.00;5075705;28;20016;-76
2023/08/26 05:07:31;;;;;;;9.95;4.70;;;;;;;11.76;100.00;101026.16;5075516;28;20039;-76
2023/08/26 05:09:56;;;;;;;10.13;5.15;;;;;;;11.80;100.00;101027.66;5056775;28;20040;-77
2023/08/26 05:12:22;;;;;;;11.10;4.88;;;;;;;11.85;100.00;101029.94;5075789;28;20129;-76
2023/08/26 05:14:50;;;;;;;8.07;4.50;;;;;;;11.89;100.00;101031.38;5075571;28;20020;-75
2023/08/26 05:17:16;;;;;;;8.77;4.47;;;;;;;11.91;100.00;101026.97;5075648;28;20021;-76
2023/08/26 05:19:42;;;;;;;8.32;4.47;;;;;;;11.89;100.00;101015.84;5075586;28;20034;-76
2023/08/26 05:22:07;;;;;;;8.68;4.60;;;;;;;12.00;100.00;101029.78;5075120;28;20020;-76
2023/08/26 05:24:32;;;;;;;16.67;4.60;;;;;;;12.07;100.00;101038.78;5075258;28;20035;-75
2023/08/26 05:26:58;;;;;;;6.78;3.88;;;;;;;12.07;100.00;101038.78;5075368;28;20020;-77
2023/08/26 05:29:23;;;;;;;7.55;3.75;;;;;;;12.11;100.00;101039.41;5075287;28;20100;-77
2023/08/26 05:31:48;;;;;;;7.13;4.32;;;;;;;12.15;100.00;101032.25;5075119;28;20038;-77
2023/08/26 05:34:14;;;;;;;7.88;3.78;;;;;;;12.18;100.00;101027.69;5075391;28;20027;-77
2023/08/26 05:36:39;;;;;;;8.02;3.67;;;;;;;12.25;100.00;101028.97;5075044;28;20025;-78
2023/08/26 05:39:05;;;;;;;8.57;4.03;;;;;;;12.30;100.00;101041.63;5075035;28;20071;-77
2023/08/26 05:41:30;;;;;;;7.55;3.42;;;;;;;12.34;100.00;101036.13;5074711;28;20595;-77
2023/08/26 05:43:55;;;;;;;9.82;4.20;;;;;;;12.40;100.00;101032.31;5074599;28;20041;-77
2023/08/26 05:46:21;;;;;;;9.30;4.07;;;;;;;12.47;100.00;101038.69;5057066;28;20040;-76
2023/08/26 05:48:46;;;;;;;7.13;3.72;;;;;;;12.62;100.00;101032.50;5074989;28;20073;-77
2023/08/26 05:51:14;;;;;;;6.90;4.00;;;;;;;13.05;100.00;101033.88;5074783;28;20111;-77
2023/08/26 05:53:39;;;;;;;9.40;3.70;;;;;;;14.05;100.00;101030.97;5057133;28;20020;-77
2023/08/26 05:56:05;;;;;;;5.00;3.05;;;;;;;14.99;100.00;100983.94;5074679;28;20031;-77
2023/08/26 05:58:30;;;;;;;8.52;2.88;;;;;;;16.31;100.00;101031.31;5074902;28;20065;-77
2023/08/26 06:00:56;;;;;;;6.97;2.88;;;;;;;17.10;95.23;101040.19;5074915;28;20158;-78
2023/08/26 06:03:21;;;;;;;6.97;2.50;;;;;;;17.93;91.17;101041.56;5073730;28;20443;-77
2023/08/26 06:05:46;;;;;;;6.68;2.50;;;;;;;18.77;85.98;101032.94;5075407;28;20426;-77
2023/08/26 06:08:12;;;;;;;5.30;2.30;;;;;;;19.22;80.92;101035.63;5074573;28;20028;-76
2023/08/26 06:10:37;;;;;;;4.88;2.40;;;;;;;19.56;76.54;101035.81;5073705;28;20029;-79
2023/08/26 06:13:03;;;;;;;5.43;2.00;;;;;;;19.68;75.05;101034.63;5055902;28;20045;-78
2023/08/26 06:15:28;;;;;;;4.72;2.20;;;;;;;19.56;74.24;100993.06;5074399;28;20021;-77
2023/08/26 06:17:53;;;;;;;6.32;2.05;;;;;;;20.10;72.81;101027.91;5056226;28;20028;-79
2023/08/26 06:20:18;;;;;;;4.60;1.95;;;;;;;20.55;71.34;101025.91;5074346;28;20028;-77
2023/08/26 06:22:45;;;;;;;6.95;2.53;;;;;;;20.79;68.51;101027.81;5074570;28;20031;-77
2023/08/26 06:25:11;;;;;;;5.38;2.22;;;;;;;20.78;67.98;101005.19;5074183;28;20027;-79
2023/08/26 06:27:36;;;;;;;4.30;2.05;;;;;;;21.36;67.02;101029.81;5074209;28;20024;-80
2023/08/26 06:30:03;;;;;;;6.75;2.10;;;;;;;21.51;64.77;101003.72;5074220;28;20033;-81
2023/08/26 06:32:29;;;;;;;4.43;1.98;;;;;;;21.61;63.74;101014.88;5073932;28;20031;-78
2023/08/26 06:34:54;;;;;;;7.80;2.50;;;;;;;21.97;64.50;101031.16;5056351;28;20378;-78
2023/08/26 06:37:19;;;;;;;5.97;2.25;;;;;;;22.15;61.80;101028.38;5074096;28;20028;-78
2023/08/26 06:39:45;;;;;;;5.50;2.17;;;;;;;22.07;64.51;101009.97;5074085;28;20024;-81
2023/08/26 06:42:11;;;;;;;9.48;2.28;;;;;;;22.31;68.69;100975.69;5074205;28;20045;-79
2023/08/26 06:44:36;;;;;;;4.57;1.70;;;;;;;22.96;64.79;101025.50;5073915;28;20566;-79
2023/08/26 06:47:04;;;;;;;4.80;2.35;;;;;;;23.15;62.68;101013.69;5073770;28;20101;-80
2023/08/26 06:49:29;;;;;;;5.07;1.80;;;;;;;23.84;64.81;101024.25;5073801;28;20036;-80
2023/08/26 06:51:54;;;;;;;4.03;1.75;;;;;;;23.72;57.60;100993.06;5055404;28;20035;-80
2023/08/26 06:54:20;;;;;;;7.10;2.30;;;;;;;24.19;59.70;101013.06;5073680;28;20040;-80
2023/08/26 06:56:45;;;;;;;4.60;1.70;;;;;;;24.43;60.48;100984.75;5073858;28;20087;-80
2023/08/26 06:59:11;;;;;;;5.30;1.92;;;;;;;24.80;58.48;101008.41;5073365;28;20470;-81
2023/08/26 07:01:37;;;;;;;4.18;1.88;;;;;;;24.92;57.29;101010.56;5073529;28;20153;-80
2023/08/26 07:04:06;;;;;;;3.80;1.60;;;;;;;24.89;56.21;101014.41;5073782;28;20123;-79
2023/08/26 07:06:32;;;;;;;6.00;1.83;;;;;;;24.98;54.46;101004.53;5073483;28;20012;-79
2023/08/26 07:08:57;;;;;;;5.72;2.03;;;;;;;24.59;52.25;100984.56;5073352;28;20039;-78
2023/08/26 07:11:23;;;;;;;6.10;2.10;;;;;;;24.67;53.67;100997.66;5073291;28;20092;-78
2023/08/26 07:13:48;;;;;;;5.82;2.03;;;;;;;23.73;55.60;101014.97;5073164;28;20052;-77
2023/08/26 07:16:13;;;;;;;7.15;2.55;;;;;;;22.26;61.24;101023.59;5054912;28;20076;-76
2023/08/26 07:18:39;;;;;;;6.35;2.20;;;;;;;20.94;68.46;101025.41;5073235;28;20028;-76
2023/08/26 07:21:04;;;;;;;6.82;2.40;;;;;;;19.87;72.19;101025.78;5073233;28;20402;-77
2023/08/26 07:23:30;;;;;;;7.55;3.00;;;;;;;19.14;77.42;101015.41;5073012;28;20462;-78
2023/08/26 07:25:55;;;;;;;6.53;2.72;;;;;;;18.79;80.62;101021.41;5072978;28;20024;-77
2023/08/26 07:28:20;;;;;;;8.23;2.45;;;;;;;18.53;84.23;101020.38;5073177;28;20021;-77
2023/08/26 07:30:46;;;;;;;8.18;2.92;;;;;;;18.20;84.35;101019.09;5073108;28;20471;-77
2023/08/26 07:33:11;;;;;;;7.40;2.33;;;;;;;18.05;87.40;101026.53;5073017;28;20522;-76
2023/08/26 07:35:36;;;;;;;5.05;2.15;;;;;;;18.01;89.80;101017.34;5073051;28;20025;-78
2023/08/26 07:38:05;;;;;;;8.10;2.63;;;;;;;17.98;89.78;101025.44;5073042;28;20028;-79
2023/08/26 07:40:30;;;;;;;7.10;2.20;;;;;;;18.16;93.08;101023.75;5055074;28;20020;-79
2023/08/26 07:42:56;;;;;;;6.25;2.33;;;;;;;18.10;90.80;101024.34;5072632;28;20048;-77
2023/08/26 07:45:21;;;;;;;7.55;2.30;;;;;;;17.91;91.11;101001.69;5072677;28;20024;-78
2023/08/26 07:47:57;;;;;;;5.95;2.40;;;;;;;17.90;90.03;101038.41;5072568;28;20025;-79
2023/08/26 07:50:22;;;;;;;6.40;2.30;;;;;;;17.88;91.74;101035.06;5072747;28;20071;-79
2023/08/26 07:52:48;;;;;;;5.50;2.53;;;;;;;17.96;91.42;101030.81;5072973;28;20488;-79
2023/08/26 07:55:14;;;;;;;5.13;2.22;;;;;;;18.01;91.67;101036.47;5072526;28;20066;-76
2023/08/26 07:57:40;;;;;;;4.78;1.95;;;;;;;18.09;92.12;101029.69;5072353;28;20036;-80
2023/08/26 08:00:07;;;;;;;5.30;2.20;;;;;;;18.17;90.95;101038.47;5072408;28;20082;-80
2023/08/26 08:02:32;;;;;;;5.80;2.35;;;;;;;17.79;89.77;101023.66;5073726;28;20383;-79
2023/08/26 08:04:57;;;;;;;7.82;2.35;;;;;;;17.97;92.70;101031.63;5072630;28;20025;-79
2023/08/26 08:07:23;;;;;;;6.85;2.17;;;;;;;18.13;94.02;101034.50;5072724;28;20021;-79
2023/08/26 08:09:48;;;;;;;7.40;2.75;;;;;;;17.98;90.62;101020.22;5072642;28;20024;-82
2023/08/26 08:12:14;;;;;;;7.15;2.38;;;;;;;18.04;90.61;101041.41;5072609;28;20420;-79
2023/08/26 08:14:41;;;;;;;6.63;2.22;;;;;;;18.15;92.84;101037.81;5072569;28;20436;-78
2023/08/26 08:17:06;;;;;;;6.28;2.67;;;;;;;18.12;93.67;101011.13;5072401;28;20039;-79
2023/08/26 08:19:37;;;;;;;6.90;2.47;;;;;;;18.21;90.94;101034.63;5072618;28;20127;-78
2023/08/26 08:22:02;;;;;;;4.93;2.30;;;;;;;18.30;92.07;101025.94;5072800;28;20074;-77
2023/08/26 08:24:28;;;;;;;7.80;2.15;;;;;;;18.34;93.34;101026.47;5072863;28;20029;-77
2023/08/26 08:26:53;;;;;;;5.85;2.25;;;;;;;18.40;93.28;101036.38;5088000;28;20422;-80
2023/08/26 08:29:18;;;;;;;9.07;2.50;;;;;;;18.24;89.30;101010.81;5071140;28;20060;-75
2023/08/26 08:31:44;;;;;;;5.80;2.10;;;;;;;18.19;89.92;101017.41;5073268;28;20119;-78
2023/08/26 08:34:09;;;;;;;5.65;1.90;;;;;;;18.43;92.99;101030.03;5076105;28;20051;-77
2023/08/26 08:36:34;;;;;;;6.78;2.10;;;;;;;18.45;89.97;101020.25;5076554;28;20028;-78
2023/08/26 08:39:00;;;;;;;5.40;2.05;;;;;;;18.45;89.76;101021.06;5076388;28;20016;-79
2023/08/26 08:41:28;;;;;;;3.55;1.90;;;;;;;18.52;92.68;101029.19;5076294;28;20056;-80
2023/08/26 08:44:01;;;;;;;3.67;1.98;;;;;;;18.59;91.56;101032.88;5075999;28;20079;-79
2023/08/26 08:46:27;;;;;;;5.70;1.95;;;;;;;18.50;89.87;101008.41;5076176;28;20476;-80
2023/08/26 08:48:52;;;;;;;4.93;1.75;;;;;;;18.60;89.81;101021.44;5091857;28;20221;-79
2023/08/26 08:51:20;;;;;;;6.60;2.25;;;;;;;18.53;89.39;101008.09;5076343;28;20074;-79
2023/08/26 08:53:46;;;;;;;4.10;1.75;;;;;;;18.55;87.82;101032.31;5076131;28;20032;-80
2023/08/26 08:56:18;;;;;;;5.75;1.95;;;;;;;18.60;86.77;101032.72;5075994;28;20057;-80
2023/08/26 08:58:47;;;;;;;4.97;1.80;;;;;;;18.88;88.71;101028.38;5076141;28;20442;-79
2023/08/26 09:01:17;;;;;;;3.97;1.60;;;;;;;19.35;86.83;101043.94;5075897;28;20031;-75
2023/08/26 09:03:43;;;;;;;3.90;1.37;;;;;;;19.58;86.72;101026.03;5076146;28;20550;-78
2023/08/26 09:06:08;;;;;;;3.75;1.50;;;;;;;19.91;82.47;101050.69;5075879;28;20071;-78
2023/08/26 09:08:34;;;;;;;4.93;1.77;;;;;;;20.06;78.13;101051.00;5075514;28;20025;-79
2023/08/26 09:11:00;;;;;;;6.88;1.58;;;;;;;20.05;79.42;101059.81;5075740;28;20043;-79
2023/08/26 09:13:26;;;;;;;5.65;1.50;;;;;;;20.16;78.39;101054.34;5075678;28;20099;-79
2023/08/26 09:15:52;;;;;;;5.10;1.55;;;;;;;20.20;79.55;101026.81;5075776;28;20023;-78
2023/08/26 09:18:19;;;;;;;2.85;1.55;;;;;;;20.13;77.05;101046.75;5075581;28;20025;-76
2023/08/26 09:20:46;;;;;;;5.43;1.48;;;;;;;19.84;76.05;101022.63;5075423;28;20025;-77
2023/08/26 09:23:12;;;;;;;3.70;1.45;;;;;;;20.04;76.88;101066.03;5075601;28;20035;-78
2023/08/26 09:25:37;;;;;;;4.85;1.60;;;;;;;20.01;77.45;101048.81;5075533;28;20435;-79
2023/08/26 09:28:04;;;;;;;3.95;1.30;;;;;;;19.90;77.13;101061.34;5075396;28;20166;-78
2023/08/26 09:30:29;;;;;;;2.38;1.10;;;;;;;19.88;78.40;101060.66;5075269;28;20032;-79
2023/08/26 09:32:55;;;;;;;4.93;1.70;;;;;;;19.83;78.81;101055.88;5075609;28;20043;-78
2023/08/26 09:35:21;;;;;;;5.07;1.65;;;;;;;19.87;80.00;101045.94;5075384;28;20023;-79
2023/08/26 09:37:57;;;;;;;3.42;1.38;;;;;;;20.21;76.61;101064.34;5075431;28;20082;-79
2023/08/26 09:40:22;;;;;;;4.25;1.20;;;;;;;20.60;75.21;101056.91;5075383;28;20172;-82
2023/08/26 09:42:50;;;;;;;3.88;1.50;;;;;;;20.55;73.92;101040.81;5074917;28;20390;-76
2023/08/26 09:45:17;;;;;;;4.18;1.52;;;;;;;20.54;72.51;101053.09;5073919;28;20039;-79
2023/08/26 09:47:45;;;;;;;4.45;1.50;;;;;;;20.71;75.65;101047.94;5075199;28;20034;-78
2023/08/26 09:50:10;;;;;;;4.45;1.65;;;;;;;20.87;72.66;101066.41;5074851;28;20028;-79
2023/08/26 09:52:48;;;;;;;2.95;1.20;;;;;;;20.55;75.48;101044.28;5075008;28;20479;-78
2023/08/26 09:55:14;;;;;;;4.07;1.30;;;;;;;20.44;75.65;101060.25;5057044;28;20031;-80
2023/08/26 09:57:40;;;;;;;6.97;1.80;;;;;;;20.24;76.30;101041.25;5074635;28;20023;-75
2023/08/26 10:00:12;;;;;;;4.78;1.63;;;;;;;20.14;75.40;101037.91;5074687;28;20115;-76
2023/08/26 10:02:48;;;;;;;4.70;1.67;;;;;;;20.39;76.04;101061.69;5060243;28;20024;-80
2023/08/26 10:05:19;;;;;;;4.00;1.40;;;;;;;20.97;76.38;101068.91;5075153;28;20050;-79
2023/08/26 10:07:47;;;;;;;2.33;1.10;;;;;;;21.26;72.83;101071.13;5075048;28;20059;-80
2023/08/26 10:10:24;;;;;;;2.97;1.20;;;;;;;21.30;70.90;101075.94;5074750;28;20036;-78
2023/08/26 10:12:54;;;;;;;2.47;1.00;;;;;;;21.09;70.01;101062.38;5074448;28;20029;-79
2023/08/26 10:15:21;;;;;;;2.38;0.80;;;;;;;20.95;71.61;101061.19;5074617;28;20029;-80
2023/08/26 10:17:56;;;;;;;3.42;1.17;;;;;;;20.99;71.43;101046.75;5074407;28;20021;-78
2023/08/26 10:20:23;;;;;;;2.20;1.00;;;;;;;21.18;69.30;101067.50;5089781;28;20024;-75
2023/08/26 10:22:48;;;;;;;3.65;1.10;;;;;;;21.14;68.92;101060.94;5075228;28;20032;-77
2023/08/26 10:25:14;;;;;;;4.38;1.25;;;;;;;21.32;70.55;101081.84;5074920;28;20112;-76
2023/08/26 10:27:41;;;;;;;2.30;1.20;;;;;;;21.24;68.27;101071.31;5074540;28;20029;-77
2023/08/26 10:30:07;;;;;;;5.50;1.05;;;;;;;20.92;70.86;101035.25;5074557;28;20079;-77
2023/08/26 10:32:42;;;;;;;5.43;1.00;;;;;;;20.81;68.14;101048.66;5074236;28;20393;-76
2023/08/26 10:35:12;;;;;;;2.83;1.15;;;;;;;21.07;68.54;101078.31;5074360;28;20025;-74
2023/08/26 10:37:38;;;;;;;3.45;1.23;;;;;;;21.39;69.45;101072.34;5074006;28;20056;-77
2023/08/26 10:40:12;;;;;;;2.78;1.00;;;;;;;21.51;67.56;101056.28;5074141;28;20558;-79
2023/08/26 10:42:39;;;;;;;2.53;0.90;;;;;;;21.65;69.48;101047.75;5073709;28;20048;-78
2023/08/26 10:45:16;;;;;;;3.55;1.17;;;;;;;21.52;67.03;101048.22;5055925;28;20052;-76
2023/08/26 10:47:46;;;;;;;5.40;1.02;;;;;;;21.27;68.39;101054.44;5074135;28;20024;-77
2023/08/26 10:50:28;;;;;;;3.75;1.02;;;;;;;21.25;67.09;101059.81;5073715;28;20353;-79
2023/08/26 10:53:14;;;;;;;3.05;0.98;;;;;;;21.28;70.48;101064.78;5073846;28;20033;-77
2023/08/26 10:55:39;;;;;;;4.20;1.00;;;;;;;21.26;68.41;101047.50;5073379;28;20024;-78
2023/08/26 10:58:11;;;;;;;2.83;0.70;;;;;;;21.50;66.87;101068.59;5073709;28;20040;-77
2023/08/26 11:00:39;;;;;;;3.35;0.90;;;;;;;21.55;66.45;101032.16;5073300;28;20028;-76
2023/08/26 11:03:11;;;;;;;2.15;0.75;;;;;;;21.65;64.72;101030.19;5073513;28;20024;-78
2023/08/26 11:06:05;;;;;;;3.45;1.00;;;;;;;21.39;66.99;100964.63;5073551;28;20487;-78
2023/08/26 11:08:31;;;;;;;1.73;0.80;;;;;;;21.19;66.96;100927.31;5073319;28;20024;-79
2023/08/26 11:10:57;;;;;;;3.33;1.00;;;;;;;21.59;66.78;100994.03;5073519;28;20123;-79
2023/08/26 11:13:25;;;;;;;2.72;1.00;;;;;;;21.19;66.01;100961.47;5073166;28;20028;-78